createdAt,value
2023-04-26T00:00:57.302Z,30.18
2023-04-26T00:01:57.316Z,30.17
2023-04-26T00:02:57.462Z,30.18
2023-04-26T00:03:57.575Z,30.18
2023-04-26T00:04:57.602Z,30.16
2023-04-26T00:05:57.531Z,30.14
2023-04-26T00:06:57.381Z,30.13
2023-04-26T00:07:57.420Z,30.16
2023-04-26T00:08:57.448Z,30.17
2023-04-26T00:09:57.491Z,30.17
2023-04-26T00:10:57.540Z,30.15
2023-04-26T00:11:57.543Z,30.19
2023-04-26T00:12:57.576Z,30.13
2023-04-26T00:13:57.607Z,30.15
2023-04-26T00:14:57.625Z,30.18
2023-04-26T00:15:57.718Z,30.20
2023-04-26T00:16:57.685Z,30.16
2023-04-26T00:17:57.772Z,30.21
2023-04-26T00:18:57.725Z,30.17
2023-04-26T00:19:57.743Z,30.16
2023-04-26T00:20:57.741Z,30.18
2023-04-26T00:21:57.745Z,30.14
2023-04-26T00:22:57.782Z,30.17
2023-04-26T00:23:57.791Z,30.17
2023-04-26T00:24:57.820Z,30.21
2023-04-26T00:25:57.869Z,30.17
2023-04-26T00:26:57.925Z,30.14
2023-04-26T00:27:57.929Z,30.10
2023-04-26T00:28:57.982Z,30.16
2023-04-26T00:29:57.998Z,30.15
2023-04-26T00:30:58.170Z,30.17
2023-04-26T00:31:58.079Z,30.18
2023-04-26T00:32:58.101Z,30.15
2023-04-26T00:33:58.105Z,30.18
2023-04-26T00:34:58.140Z,30.17
2023-04-26T00:35:58.167Z,30.13
2023-04-26T00:36:58.201Z,30.15
2023-04-26T00:37:58.212Z,30.15
2023-04-26T00:38:58.243Z,30.11
2023-04-26T00:39:58.270Z,30.18
2023-04-26T00:40:58.312Z,30.16
2023-04-26T00:41:58.347Z,30.10
2023-04-26T00:42:59.335Z,30.17
2023-04-26T00:43:58.412Z,30.11
2023-04-26T00:44:58.447Z,30.17
2023-04-26T00:45:58.530Z,30.13
2023-04-26T00:46:58.522Z,30.15
2023-04-26T00:47:58.621Z,30.14
2023-04-26T00:48:58.602Z,30.13
2023-04-26T00:49:58.657Z,30.13
2023-04-26T00:50:58.673Z,30.16
2023-04-26T00:51:58.703Z,30.15
2023-04-26T00:52:58.716Z,30.14
2023-04-26T00:53:58.760Z,30.15
2023-04-26T00:54:58.792Z,30.14
2023-04-26T00:55:58.866Z,30.11
2023-04-26T00:56:58.886Z,30.14
2023-04-26T00:57:58.898Z,30.18
2023-04-26T00:58:58.966Z,30.15
2023-04-26T00:59:58.969Z,30.14
2023-04-26T01:00:59.014Z,30.13
2023-04-26T01:01:59.069Z,30.16
2023-04-26T01:02:59.168Z,30.11
2023-04-26T01:03:59.258Z,30.14
2023-04-26T01:04:59.096Z,30.13
2023-04-26T01:05:59.130Z,30.14
2023-04-26T01:06:59.160Z,30.11
2023-04-26T01:07:59.203Z,30.13
2023-04-26T01:08:59.221Z,30.08
2023-04-26T01:09:59.274Z,30.18
2023-04-26T01:10:59.326Z,30.10
2023-04-26T01:11:59.325Z,30.13
2023-04-26T01:12:59.406Z,30.15
2023-04-26T01:13:59.398Z,30.13
2023-04-26T01:14:59.458Z,30.14
2023-04-26T01:15:59.444Z,30.08
2023-04-26T01:16:59.521Z,30.10
2023-04-26T01:17:59.545Z,30.11
2023-04-26T01:18:59.543Z,30.11
2023-04-26T01:19:59.827Z,30.13
2023-04-26T01:21:00.933Z,30.11
2023-04-26T01:21:59.552Z,30.09
2023-04-26T01:22:59.556Z,30.09
2023-04-26T01:23:59.547Z,30.17
2023-04-26T01:24:59.532Z,30.13
2023-04-26T01:25:59.529Z,30.13
2023-04-26T01:27:00.322Z,30.10
2023-04-26T01:27:59.516Z,30.08
2023-04-26T01:28:59.507Z,30.04
2023-04-26T01:29:59.497Z,30.10
2023-04-26T01:30:59.532Z,30.10
2023-04-26T01:31:59.480Z,30.11
2023-04-26T01:32:59.536Z,30.13
2023-04-26T01:33:59.483Z,30.09
2023-04-26T01:34:59.466Z,30.13
2023-04-26T01:35:59.462Z,30.10
2023-04-26T01:36:59.468Z,30.06
2023-04-26T01:37:59.455Z,30.11
2023-04-26T01:38:59.443Z,30.13
2023-04-26T01:39:59.437Z,30.10
2023-04-26T01:40:59.429Z,30.14
2023-04-26T01:41:59.421Z,30.08
2023-04-26T01:42:59.434Z,30.11
2023-04-26T01:43:59.410Z,30.13
2023-04-26T01:44:59.446Z,30.11
2023-04-26T01:45:59.587Z,30.14
2023-04-26T01:46:59.537Z,30.10
2023-04-26T01:47:59.583Z,30.11
2023-04-26T01:48:59.601Z,30.09
2023-04-26T01:49:59.630Z,30.10
2023-04-26T01:50:59.672Z,30.08
2023-04-26T01:51:59.717Z,30.11
2023-04-26T01:52:59.725Z,30.14
2023-04-26T01:53:59.759Z,30.07
2023-04-26T01:54:59.760Z,30.10
2023-04-26T01:55:59.766Z,30.07
2023-04-26T01:56:59.789Z,30.06
2023-04-26T01:57:59.797Z,30.10
2023-04-26T01:58:59.812Z,30.06
2023-04-26T02:00:00.341Z,30.07
2023-04-26T02:00:59.845Z,30.06
2023-04-26T02:01:59.938Z,30.03
2023-04-26T02:03:00.019Z,30.08
2023-04-26T02:03:59.917Z,30.07
2023-04-26T02:05:00.062Z,30.09
2023-04-26T02:05:59.957Z,30.09
2023-04-26T02:06:59.983Z,30.07
2023-04-26T02:08:00.022Z,30.10
2023-04-26T02:09:00.063Z,30.11
2023-04-26T02:10:00.156Z,30.10
2023-04-26T02:11:00.149Z,30.07
2023-04-26T02:12:00.155Z,30.06
2023-04-26T02:13:00.182Z,30.06
2023-04-26T02:14:00.201Z,30.06
2023-04-26T02:15:00.227Z,30.07
2023-04-26T02:16:00.273Z,30.06
2023-04-26T02:17:00.257Z,30.02
2023-04-26T02:18:00.334Z,30.03
2023-04-26T02:19:00.374Z,30.00
2023-04-26T02:20:00.330Z,30.03
2023-04-26T02:21:00.354Z,30.03
2023-04-26T02:22:00.396Z,30.04
2023-04-26T02:23:00.428Z,30.06
2023-04-26T02:24:00.464Z,30.01
2023-04-26T02:25:00.493Z,30.03
2023-04-26T02:26:00.523Z,30.06
2023-04-26T02:27:00.564Z,30.04
2023-04-26T02:28:00.582Z,30.04
2023-04-26T02:29:00.606Z,30.04
2023-04-26T02:30:00.614Z,30.07
2023-04-26T02:31:00.675Z,30.08
2023-04-26T02:32:00.684Z,30.04
2023-04-26T02:33:00.736Z,30.00
2023-04-26T02:34:00.757Z,30.03
2023-04-26T02:35:00.794Z,29.99
2023-04-26T02:36:00.796Z,29.99
2023-04-26T02:37:00.840Z,30.03
2023-04-26T02:38:00.860Z,30.00
2023-04-26T02:39:00.897Z,30.03
2023-04-26T02:40:00.941Z,30.07
2023-04-26T02:41:00.971Z,30.04
2023-04-26T02:42:01.000Z,30.03
2023-04-26T02:43:01.043Z,30.01
2023-04-26T02:44:01.066Z,30.04
2023-04-26T02:45:01.104Z,30.03
2023-04-26T02:46:01.153Z,29.99
2023-04-26T02:47:01.178Z,29.97
2023-04-26T02:48:01.194Z,29.99
2023-04-26T02:49:01.230Z,30.01
2023-04-26T02:50:01.250Z,30.01
2023-04-26T02:51:01.317Z,30.00
2023-04-26T02:52:01.320Z,29.98
2023-04-26T02:53:01.327Z,29.97
2023-04-26T02:54:01.333Z,30.01
2023-04-26T02:55:01.345Z,29.94
2023-04-26T02:56:01.387Z,29.99
2023-04-26T02:57:01.429Z,29.96
2023-04-26T02:58:01.447Z,29.93
2023-04-26T02:59:01.458Z,29.99
2023-04-26T03:00:01.492Z,29.95
2023-04-26T03:01:01.911Z,30.00
2023-04-26T03:02:01.604Z,30.00
2023-04-26T03:03:01.712Z,29.99
2023-04-26T03:04:01.783Z,30.00
2023-04-26T03:05:01.655Z,29.97
2023-04-26T03:06:01.686Z,29.95
2023-04-26T03:07:01.766Z,29.92
2023-04-26T03:08:01.799Z,30.01
2023-04-26T03:09:01.778Z,29.94
2023-04-26T03:10:01.824Z,29.97
2023-04-26T03:11:01.866Z,29.97
2023-04-26T03:12:01.860Z,29.94
2023-04-26T03:13:01.883Z,29.93
2023-04-26T03:14:01.911Z,29.94
2023-04-26T03:15:01.955Z,29.95
2023-04-26T03:16:02.109Z,29.93
2023-04-26T03:17:02.096Z,29.91
2023-04-26T03:18:02.080Z,29.91
2023-04-26T03:19:02.084Z,29.96
2023-04-26T03:20:02.929Z,29.93
2023-04-26T03:21:02.162Z,29.95
2023-04-26T03:22:02.196Z,29.90
2023-04-26T03:23:02.256Z,29.91
2023-04-26T03:24:02.264Z,29.95
2023-04-26T03:25:02.313Z,29.94
2023-04-26T03:26:02.346Z,29.94
2023-04-26T03:27:02.386Z,29.97
2023-04-26T03:28:02.412Z,29.97
2023-04-26T03:29:02.449Z,29.93
2023-04-26T03:30:02.472Z,29.94
2023-04-26T03:31:02.518Z,29.94
2023-04-26T03:32:02.563Z,29.93
2023-04-26T03:33:02.641Z,29.91
2023-04-26T03:34:02.613Z,29.91
2023-04-26T03:35:02.661Z,29.94
2023-04-26T03:36:02.699Z,29.88
2023-04-26T03:37:02.735Z,29.88
2023-04-26T03:38:02.772Z,29.97
2023-04-26T03:39:02.830Z,29.95
2023-04-26T03:40:02.838Z,29.93
2023-04-26T03:41:02.875Z,29.93
2023-04-26T03:42:02.965Z,29.93
2023-04-26T03:43:02.968Z,29.93
2023-04-26T03:44:02.981Z,29.93
2023-04-26T03:45:02.990Z,29.94
2023-04-26T03:46:03.047Z,29.95
2023-04-26T03:47:03.065Z,29.90
2023-04-26T03:48:03.135Z,29.95
2023-04-26T03:49:03.114Z,29.93
2023-04-26T03:50:03.188Z,29.94
2023-04-26T03:51:03.207Z,29.90
2023-04-26T03:52:03.211Z,29.97
2023-04-26T03:53:03.242Z,29.88
2023-04-26T03:54:03.269Z,29.95
2023-04-26T03:55:03.334Z,29.91
2023-04-26T03:56:03.393Z,29.97
2023-04-26T03:57:03.362Z,29.92
2023-04-26T03:58:03.387Z,29.93
2023-04-26T03:59:03.425Z,29.98
2023-04-26T04:00:03.458Z,29.95
2023-04-26T04:01:03.491Z,29.92
2023-04-26T04:02:03.537Z,29.95
2023-04-26T04:03:03.766Z,29.93
2023-04-26T04:04:03.962Z,29.93
2023-04-26T04:05:03.763Z,29.91
2023-04-26T04:06:03.631Z,29.93
2023-04-26T04:07:03.667Z,29.97
2023-04-26T04:08:03.645Z,29.90
2023-04-26T04:09:03.671Z,29.91
2023-04-26T04:10:03.679Z,29.91
2023-04-26T04:11:03.741Z,29.94
2023-04-26T04:12:03.761Z,29.86
2023-04-26T04:13:03.773Z,29.86
2023-04-26T04:14:03.799Z,29.91
2023-04-26T04:15:03.827Z,29.94
2023-04-26T04:16:03.858Z,29.90
2023-04-26T04:17:03.866Z,29.92
2023-04-26T04:18:03.942Z,29.86
2023-04-26T04:19:03.906Z,29.95
2023-04-26T04:20:03.925Z,29.91
2023-04-26T04:21:03.925Z,29.87
2023-04-26T04:22:03.928Z,29.91
2023-04-26T04:23:03.964Z,29.85
2023-04-26T04:24:03.999Z,29.88
2023-04-26T04:25:04.032Z,29.90
2023-04-26T04:26:04.080Z,29.86
2023-04-26T04:27:04.129Z,29.87
2023-04-26T04:28:04.116Z,29.84
2023-04-26T04:29:04.130Z,29.88
2023-04-26T04:30:04.147Z,29.86
2023-04-26T04:31:04.200Z,29.87
2023-04-26T04:32:04.189Z,29.87
2023-04-26T04:33:04.228Z,29.84
2023-04-26T04:34:04.258Z,29.86
2023-04-26T04:35:04.251Z,29.88
2023-04-26T04:36:04.282Z,29.85
2023-04-26T04:37:04.364Z,29.88
2023-04-26T04:38:04.420Z,29.88
2023-04-26T04:39:04.375Z,29.86
2023-04-26T04:40:04.422Z,29.84
2023-04-26T04:41:04.477Z,29.84
2023-04-26T04:42:04.513Z,29.86
2023-04-26T04:43:04.566Z,29.87
2023-04-26T04:44:04.565Z,29.84
2023-04-26T04:45:04.605Z,29.87
2023-04-26T04:46:04.679Z,29.86
2023-04-26T04:47:04.691Z,29.86
2023-04-26T04:48:04.797Z,29.83
2023-04-26T04:49:04.764Z,29.86
2023-04-26T04:50:04.804Z,29.84
2023-04-26T04:51:04.845Z,29.87
2023-04-26T04:52:04.868Z,29.87
2023-04-26T04:53:04.902Z,29.81
2023-04-26T04:54:04.931Z,29.81
2023-04-26T04:55:04.967Z,29.81
2023-04-26T04:56:05.009Z,29.81
2023-04-26T04:57:05.032Z,29.87
2023-04-26T04:58:05.055Z,29.81
2023-04-26T04:59:05.111Z,29.81
2023-04-26T05:00:05.229Z,29.80
2023-04-26T05:01:05.147Z,29.83
2023-04-26T05:02:05.247Z,29.81
2023-04-26T05:03:05.465Z,29.80
2023-04-26T05:04:05.456Z,29.84
2023-04-26T05:05:05.528Z,29.77
2023-04-26T05:06:05.333Z,29.79
2023-04-26T05:07:05.364Z,29.80
2023-04-26T05:08:05.397Z,29.81
2023-04-26T05:09:05.425Z,29.80
2023-04-26T05:10:05.495Z,29.80
2023-04-26T05:11:05.505Z,29.84
2023-04-26T05:12:05.541Z,29.80
2023-04-26T05:13:05.570Z,29.83
2023-04-26T05:14:05.609Z,29.84
2023-04-26T05:15:05.690Z,29.83
2023-04-26T05:16:05.710Z,29.83
2023-04-26T05:17:05.925Z,29.77
2023-04-26T05:18:05.804Z,29.82
2023-04-26T05:19:08.656Z,29.77
2023-04-26T05:20:05.766Z,29.79
2023-04-26T05:21:05.786Z,29.75
2023-04-26T05:22:05.923Z,29.86
2023-04-26T05:23:05.785Z,29.93
2023-04-26T05:24:05.761Z,29.82
2023-04-26T05:25:05.786Z,29.86
2023-04-26T05:26:05.763Z,29.88
2023-04-26T05:27:05.959Z,29.86
2023-04-26T05:28:05.724Z,29.85
2023-04-26T05:29:05.722Z,29.86
2023-04-26T05:30:05.700Z,29.89
2023-04-26T05:31:05.735Z,29.88
2023-04-26T05:32:05.797Z,29.81
2023-04-26T05:33:05.708Z,29.88
2023-04-26T05:34:05.681Z,29.91
2023-04-26T05:35:05.928Z,29.92
2023-04-26T05:36:05.656Z,29.92
2023-04-26T05:37:05.656Z,29.94
2023-04-26T05:38:05.704Z,29.92
2023-04-26T05:39:05.644Z,29.91
2023-04-26T05:40:05.937Z,29.91
2023-04-26T05:41:05.640Z,29.94
2023-04-26T05:42:05.618Z,30.16
2023-04-26T05:43:05.654Z,30.11
2023-04-26T05:44:05.597Z,30.09
2023-04-26T05:45:05.947Z,30.14
2023-04-26T05:46:05.683Z,30.15
2023-04-26T05:47:05.617Z,30.12
2023-04-26T05:48:05.717Z,30.11
2023-04-26T05:49:05.702Z,30.11
2023-04-26T05:50:05.938Z,30.17
2023-04-26T05:51:05.652Z,30.20
2023-04-26T05:52:05.712Z,30.38
2023-04-26T05:53:05.697Z,30.44
2023-04-26T05:54:05.955Z,30.49
2023-04-26T05:55:06.324Z,30.60
2023-04-26T05:56:05.710Z,30.80
2023-04-26T05:57:05.695Z,30.96
2023-04-26T05:58:05.735Z,31.13
2023-04-26T05:59:05.994Z,31.15
2023-04-26T06:00:05.726Z,31.21
2023-04-26T06:01:05.712Z,31.28
2023-04-26T06:02:06.014Z,31.33
2023-04-26T06:03:06.037Z,31.48
2023-04-26T06:04:06.115Z,31.63
2023-04-26T06:05:06.078Z,31.72
2023-04-26T06:06:05.799Z,31.78
2023-04-26T06:07:05.842Z,32.04
2023-04-26T06:08:05.974Z,32.08
2023-04-26T06:09:05.858Z,32.32
2023-04-26T06:10:05.954Z,32.30
2023-04-26T06:11:05.884Z,32.46
2023-04-26T06:12:05.906Z,32.60
2023-04-26T06:13:05.892Z,32.59
2023-04-26T06:14:06.749Z,32.80
2023-04-26T06:15:06.452Z,32.83
2023-04-26T06:16:06.068Z,32.92
2023-04-26T06:17:06.200Z,33.12
2023-04-26T06:18:06.212Z,33.15
2023-04-26T06:19:06.247Z,33.25
2023-04-26T06:20:06.448Z,33.29
2023-04-26T06:21:06.304Z,33.44
2023-04-26T06:22:06.376Z,33.51
2023-04-26T06:23:06.417Z,33.47
2023-04-26T06:24:06.479Z,33.57
2023-04-26T06:25:07.455Z,33.76
2023-04-26T06:26:06.946Z,33.81
2023-04-26T06:27:06.656Z,33.87
2023-04-26T06:28:06.730Z,34.04
2023-04-26T06:29:06.774Z,33.87
2023-04-26T06:30:06.850Z,33.97
2023-04-26T06:31:06.989Z,34.10
2023-04-26T06:32:06.939Z,34.03
2023-04-26T06:33:07.033Z,34.44
2023-04-26T06:34:08.426Z,34.40
2023-04-26T06:35:07.625Z,34.42
2023-04-26T06:36:07.241Z,34.70
2023-04-26T06:37:07.458Z,34.64
2023-04-26T06:38:07.592Z,34.52
2023-04-26T06:39:10.561Z,34.38
2023-04-26T06:40:07.374Z,34.20
2023-04-26T06:41:07.468Z,34.16
2023-04-26T06:42:07.344Z,34.01
2023-04-26T06:43:07.331Z,32.97
2023-04-26T06:44:07.321Z,31.81
2023-04-26T06:45:07.484Z,31.33
2023-04-26T06:46:08.353Z,30.80
2023-04-26T06:47:07.354Z,30.56
2023-04-26T06:48:08.010Z,31.38
2023-04-26T06:49:07.327Z,31.91
2023-04-26T06:50:07.463Z,32.05
2023-04-26T06:51:07.319Z,32.04
2023-04-26T06:52:08.689Z,32.01
2023-04-26T06:53:07.260Z,31.88
2023-04-26T06:54:07.271Z,31.65
2023-04-26T06:55:07.463Z,31.43
2023-04-26T06:56:07.988Z,31.34
2023-04-26T06:57:07.245Z,31.36
2023-04-26T06:58:07.230Z,31.27
2023-04-26T06:59:07.222Z,31.26
2023-04-26T07:00:07.241Z,31.25
2023-04-26T07:01:07.229Z,31.18
2023-04-26T07:02:07.525Z,31.21
2023-04-26T07:03:07.423Z,31.09
2023-04-26T07:04:07.539Z,31.16
2023-04-26T07:05:08.269Z,31.15
2023-04-26T07:06:07.206Z,31.18
2023-04-26T07:07:07.558Z,31.16
2023-04-26T07:08:07.910Z,31.16
2023-04-26T07:09:07.160Z,31.16
2023-04-26T07:10:07.548Z,31.16
2023-04-26T07:11:07.162Z,31.13
2023-04-26T07:12:07.139Z,31.15
2023-04-26T07:13:09.491Z,31.14
2023-04-26T07:14:07.124Z,31.13
2023-04-26T07:15:07.121Z,31.07
2023-04-26T07:16:07.131Z,31.19
2023-04-26T07:17:07.118Z,31.13
2023-04-26T07:18:07.532Z,31.11
2023-04-26T07:19:07.094Z,31.13
2023-04-26T07:20:07.481Z,31.09
2023-04-26T07:21:07.079Z,31.07
2023-04-26T07:22:07.100Z,31.09
2023-04-26T07:23:07.500Z,31.07
2023-04-26T07:24:07.054Z,31.05
2023-04-26T07:25:07.065Z,31.08
2023-04-26T07:26:07.064Z,31.05
2023-04-26T07:27:07.030Z,31.07
2023-04-26T07:28:07.588Z,31.05
2023-04-26T07:29:07.021Z,31.09
2023-04-26T07:30:07.238Z,31.08
2023-04-26T07:31:09.581Z,31.05
2023-04-26T07:32:07.055Z,31.05
2023-04-26T07:33:08.143Z,31.07
2023-04-26T07:34:07.017Z,31.05
2023-04-26T07:35:06.988Z,31.02
2023-04-26T07:36:06.985Z,31.01
2023-04-26T07:37:07.484Z,31.02
2023-04-26T07:38:06.983Z,31.04
2023-04-26T07:39:06.996Z,30.74
2023-04-26T07:40:06.952Z,31.06
2023-04-26T07:41:07.059Z,31.02
2023-04-26T07:42:07.331Z,31.18
2023-04-26T07:43:06.969Z,31.32
2023-04-26T07:44:06.940Z,31.34
2023-04-26T07:45:07.015Z,31.34
2023-04-26T07:46:06.964Z,31.40
2023-04-26T07:47:06.934Z,31.54
2023-04-26T07:48:06.938Z,31.67
2023-04-26T07:49:06.896Z,31.78
2023-04-26T07:50:07.028Z,31.96
2023-04-26T07:51:07.979Z,32.07
2023-04-26T07:52:06.903Z,32.10
2023-04-26T07:53:06.904Z,32.04
2023-04-26T07:54:06.900Z,31.92
2023-04-26T07:55:07.144Z,31.81
2023-04-26T07:56:06.991Z,31.75
2023-04-26T07:57:06.900Z,31.76
2023-04-26T07:58:06.895Z,31.76
2023-04-26T07:59:06.892Z,31.73
2023-04-26T08:00:07.026Z,31.73
2023-04-26T08:01:07.006Z,31.72
2023-04-26T08:02:07.022Z,31.62
2023-04-26T08:03:07.126Z,31.66
2023-04-26T08:04:07.051Z,31.66
2023-04-26T08:05:07.204Z,31.68
2023-04-26T08:06:07.079Z,31.66
2023-04-26T08:07:06.883Z,31.64
2023-04-26T08:08:06.979Z,31.62
2023-04-26T08:09:06.878Z,31.62
2023-04-26T08:10:06.876Z,31.65
2023-04-26T08:11:07.261Z,31.62
2023-04-26T08:12:07.026Z,31.61
2023-04-26T08:13:06.877Z,31.57
2023-04-26T08:14:06.871Z,31.63
2023-04-26T08:15:06.998Z,31.66
2023-04-26T08:16:06.894Z,31.60
2023-04-26T08:17:07.008Z,31.63
2023-04-26T08:18:06.979Z,31.60
2023-04-26T08:19:06.985Z,31.60
2023-04-26T08:20:07.029Z,31.59
2023-04-26T08:21:07.019Z,31.57
2023-04-26T08:22:07.185Z,31.62
2023-04-26T08:23:06.979Z,31.60
2023-04-26T08:24:06.985Z,31.63
2023-04-26T08:25:07.044Z,31.59
2023-04-26T08:26:07.530Z,31.60
2023-04-26T08:27:07.138Z,31.55
2023-04-26T08:28:07.565Z,31.62
2023-04-26T08:29:07.113Z,31.59
2023-04-26T08:30:07.117Z,31.54
2023-04-26T08:31:07.554Z,31.61
2023-04-26T08:32:07.217Z,31.57
2023-04-26T08:33:07.199Z,31.60
2023-04-26T08:34:07.262Z,31.62
2023-04-26T08:35:07.243Z,31.52
2023-04-26T08:36:07.510Z,31.57
2023-04-26T08:37:07.254Z,31.53
2023-04-26T08:38:07.266Z,31.56
2023-04-26T08:39:07.259Z,31.52
2023-04-26T08:40:07.271Z,31.60
2023-04-26T08:41:07.504Z,31.53
2023-04-26T08:42:07.279Z,31.55
2023-04-26T08:43:07.316Z,31.54
2023-04-26T08:44:07.302Z,31.53
2023-04-26T08:45:07.530Z,31.53
2023-04-26T08:46:07.393Z,31.53
2023-04-26T08:47:07.351Z,31.53
2023-04-26T08:48:07.481Z,31.50
2023-04-26T08:49:10.558Z,31.50
2023-04-26T08:50:07.524Z,31.53
2023-04-26T08:51:07.355Z,31.53
2023-04-26T08:52:07.393Z,31.53
2023-04-26T08:53:07.341Z,31.57
2023-04-26T08:54:07.331Z,31.56
2023-04-26T08:55:07.324Z,31.59
2023-04-26T08:56:07.664Z,31.60
2023-04-26T08:57:07.313Z,31.61
2023-04-26T08:58:07.304Z,31.57
2023-04-26T08:59:07.325Z,31.60
2023-04-26T09:00:07.449Z,31.57
2023-04-26T09:01:07.514Z,31.57
2023-04-26T09:02:07.440Z,31.57
2023-04-26T09:03:07.435Z,31.58
2023-04-26T09:04:07.458Z,31.58
2023-04-26T09:05:07.326Z,31.61
2023-04-26T09:06:07.265Z,31.57
2023-04-26T09:07:07.358Z,31.51
2023-04-26T09:08:07.272Z,31.53
2023-04-26T09:09:07.232Z,31.56
2023-04-26T09:10:07.227Z,31.54
2023-04-26T09:11:07.521Z,31.47
2023-04-26T09:12:07.219Z,31.54
2023-04-26T09:13:07.274Z,31.47
2023-04-26T09:14:07.193Z,31.54
2023-04-26T09:15:07.231Z,31.48
2023-04-26T09:16:07.567Z,31.48
2023-04-26T09:17:07.177Z,31.50
2023-04-26T09:18:07.178Z,31.46
2023-04-26T09:19:07.162Z,31.49
2023-04-26T09:20:07.961Z,31.45
2023-04-26T09:21:07.536Z,31.45
2023-04-26T09:22:07.132Z,31.44
2023-04-26T09:23:07.178Z,31.44
2023-04-26T09:24:07.528Z,31.42
2023-04-26T09:25:07.134Z,31.44
2023-04-26T09:26:07.137Z,31.47
2023-04-26T09:27:07.144Z,31.48
2023-04-26T09:28:07.095Z,31.43
2023-04-26T09:29:07.522Z,31.64
2023-04-26T09:30:07.080Z,31.74
2023-04-26T09:31:07.787Z,32.61
2023-04-26T09:32:07.074Z,32.74
2023-04-26T09:33:07.163Z,32.80
2023-04-26T09:34:07.096Z,32.41
2023-04-26T09:35:07.075Z,31.79
2023-04-26T09:36:07.534Z,31.83
2023-04-26T09:37:07.042Z,30.71
2023-04-26T09:38:11.008Z,30.43
2023-04-26T09:39:07.050Z,29.85
2023-04-26T09:40:07.025Z,30.30
2023-04-26T09:41:07.545Z,30.72
2023-04-26T09:42:07.024Z,31.29
2023-04-26T09:43:07.014Z,31.32
2023-04-26T09:44:06.995Z,31.48
2023-04-26T09:45:06.999Z,31.81
2023-04-26T09:46:07.033Z,32.22
2023-04-26T09:47:07.189Z,32.22
2023-04-26T09:48:07.009Z,32.62
2023-04-26T09:49:06.970Z,32.93
2023-04-26T09:50:07.039Z,32.96
2023-04-26T09:51:07.026Z,33.20
2023-04-26T09:52:06.943Z,33.47
2023-04-26T09:53:06.940Z,33.80
2023-04-26T09:54:06.949Z,33.87
2023-04-26T09:55:06.928Z,34.18
2023-04-26T09:56:07.039Z,34.38
2023-04-26T09:57:06.920Z,34.38
2023-04-26T09:58:06.907Z,34.61
2023-04-26T09:59:06.905Z,34.57
2023-04-26T10:00:07.041Z,34.86
2023-04-26T10:01:07.094Z,34.81
2023-04-26T10:02:06.882Z,35.18
2023-04-26T10:03:07.067Z,35.14
2023-04-26T10:04:06.975Z,35.29
2023-04-26T10:05:06.897Z,35.40
2023-04-26T10:06:07.048Z,35.64
2023-04-26T10:07:06.858Z,35.69
2023-04-26T10:08:06.838Z,35.56
2023-04-26T10:09:06.836Z,35.46
2023-04-26T10:10:06.887Z,35.38
2023-04-26T10:11:07.039Z,35.26
2023-04-26T10:12:06.973Z,35.13
2023-04-26T10:13:07.033Z,34.81
2023-04-26T10:14:07.057Z,34.62
2023-04-26T10:15:07.107Z,34.62
2023-04-26T10:16:07.570Z,34.50
2023-04-26T10:17:07.207Z,34.37
2023-04-26T10:18:07.590Z,34.30
2023-04-26T10:19:07.388Z,34.21
2023-04-26T10:20:07.382Z,34.00
2023-04-26T10:21:07.449Z,33.90
2023-04-26T10:22:07.485Z,33.83
2023-04-26T10:23:08.058Z,33.71
2023-04-26T10:24:07.616Z,33.57
2023-04-26T10:25:07.670Z,33.50
2023-04-26T10:26:08.543Z,33.33
2023-04-26T10:27:07.762Z,33.30
2023-04-26T10:28:07.791Z,33.17
2023-04-26T10:29:08.270Z,33.10
2023-04-26T10:30:08.306Z,32.90
2023-04-26T10:31:08.446Z,32.76
2023-04-26T10:32:08.737Z,32.57
2023-04-26T10:33:08.055Z,32.48
2023-04-26T10:34:09.855Z,32.43
2023-04-26T10:35:08.540Z,32.42
2023-04-26T10:36:08.981Z,32.37
2023-04-26T10:37:08.483Z,32.27
2023-04-26T10:38:08.888Z,32.21
2023-04-26T10:39:08.446Z,32.24
2023-04-26T10:40:08.606Z,32.21
2023-04-26T10:41:08.423Z,32.16
2023-04-26T10:42:08.414Z,32.13
2023-04-26T10:43:08.476Z,32.08
2023-04-26T10:44:08.348Z,32.00
2023-04-26T10:45:08.461Z,31.99
2023-04-26T10:46:08.512Z,31.99
2023-04-26T10:47:08.551Z,32.02
2023-04-26T10:48:08.565Z,31.95
2023-04-26T10:49:08.715Z,31.92
2023-04-26T10:50:08.193Z,31.85
2023-04-26T10:51:08.800Z,31.84
2023-04-26T10:52:09.111Z,31.75
2023-04-26T10:53:08.686Z,31.66
2023-04-26T10:54:08.357Z,31.66
2023-04-26T10:55:08.401Z,31.58
2023-04-26T10:56:08.461Z,31.39
2023-04-26T10:57:08.495Z,31.42
2023-04-26T10:58:08.518Z,31.40
2023-04-26T10:59:30.646Z,31.32
2023-04-26T11:00:08.526Z,31.38
2023-04-26T11:01:08.665Z,31.19
2023-04-26T11:02:08.558Z,31.16
2023-04-26T11:03:08.894Z,31.16
2023-04-26T11:04:08.715Z,31.13
2023-04-26T11:05:08.634Z,31.07
2023-04-26T11:06:08.567Z,31.10
2023-04-26T11:07:08.515Z,31.05
2023-04-26T11:08:08.696Z,30.95
2023-04-26T11:09:08.465Z,31.05
2023-04-26T11:10:08.481Z,31.02
2023-04-26T11:11:08.483Z,31.02
2023-04-26T11:12:08.503Z,31.07
2023-04-26T11:13:08.442Z,30.99
2023-04-26T11:14:08.441Z,30.99
2023-04-26T11:15:08.431Z,29.47
2023-04-26T11:16:08.735Z,29.65
2023-04-26T11:17:09.183Z,28.52
2023-04-26T11:18:08.478Z,28.05
2023-04-26T11:19:08.408Z,28.34
2023-04-26T11:20:08.402Z,28.19
2023-04-26T11:21:08.418Z,28.11
2023-04-26T11:22:08.387Z,28.32
2023-04-26T11:23:08.404Z,28.25
2023-04-26T11:24:08.379Z,28.41
2023-04-26T11:25:08.381Z,28.67
2023-04-26T11:26:08.814Z,28.94
2023-04-26T11:27:08.364Z,29.04
2023-04-26T11:28:08.351Z,29.34
2023-04-26T11:29:08.342Z,29.47
2023-04-26T11:30:08.338Z,29.55
2023-04-26T11:31:08.653Z,29.17
2023-04-26T11:32:09.047Z,29.33
2023-04-26T11:33:08.406Z,29.43
2023-04-26T11:34:08.313Z,29.35
2023-04-26T11:35:08.296Z,29.47
2023-04-26T11:36:08.580Z,28.07
2023-04-26T11:37:08.320Z,27.66
2023-04-26T11:38:08.296Z,26.90
2023-04-26T11:39:08.353Z,26.80
2023-04-26T11:40:08.609Z,26.67
2023-04-26T11:41:08.307Z,26.97
2023-04-26T11:42:08.308Z,27.33
2023-04-26T11:43:08.333Z,27.58
2023-04-26T11:44:08.429Z,27.84
2023-04-26T11:45:08.587Z,27.98
2023-04-26T11:46:08.487Z,28.05
2023-04-26T11:47:08.537Z,28.08
2023-04-26T11:48:08.502Z,28.07
2023-04-26T11:49:08.425Z,28.01
2023-04-26T11:50:08.424Z,27.97
2023-04-26T11:51:08.631Z,28.04
2023-04-26T11:52:08.441Z,28.06
2023-04-26T11:53:08.470Z,28.11
2023-04-26T11:54:08.477Z,26.61
2023-04-26T11:55:08.537Z,26.08
2023-04-26T11:56:08.489Z,26.45
2023-04-26T11:57:08.508Z,26.11
2023-04-26T11:58:08.568Z,26.43
2023-04-26T11:59:08.543Z,26.44
2023-04-26T12:00:09.095Z,26.74
2023-04-26T12:01:09.092Z,26.79
2023-04-26T12:02:08.796Z,26.88
2023-04-26T12:03:09.042Z,26.73
2023-04-26T12:04:09.195Z,26.74
2023-04-26T12:05:08.964Z,26.65
2023-04-26T12:06:08.920Z,27.04
2023-04-26T12:07:08.974Z,27.00
2023-04-26T12:08:09.027Z,27.04
2023-04-26T12:09:09.071Z,27.10
2023-04-26T12:10:09.131Z,27.28
2023-04-26T12:11:09.192Z,27.62
2023-04-26T12:12:09.606Z,27.70
2023-04-26T12:13:09.191Z,27.85
2023-04-26T12:14:09.238Z,28.05
2023-04-26T12:15:09.282Z,28.23
2023-04-26T12:16:18.504Z,28.62
2023-04-26T12:17:09.392Z,28.79
2023-04-26T12:18:09.384Z,28.93
2023-04-26T12:19:09.307Z,29.10
2023-04-26T12:20:09.295Z,29.26
2023-04-26T12:21:09.331Z,29.39
2023-04-26T12:22:09.311Z,29.55
2023-04-26T12:23:09.280Z,29.71
2023-04-26T12:24:09.270Z,29.72
2023-04-26T12:25:09.275Z,29.86
2023-04-26T12:26:09.254Z,30.01
2023-04-26T12:27:09.295Z,30.09
2023-04-26T12:28:09.412Z,30.21
2023-04-26T12:29:09.239Z,30.31
2023-04-26T12:30:09.233Z,30.42
2023-04-26T12:31:09.350Z,30.58
2023-04-26T12:32:09.649Z,30.65
2023-04-26T12:33:17.011Z,30.67
2023-04-26T12:34:09.224Z,30.87
2023-04-26T12:35:09.217Z,31.00
2023-04-26T12:36:09.676Z,30.99
2023-04-26T12:37:09.192Z,31.12
2023-04-26T12:38:09.186Z,31.12
2023-04-26T12:39:09.168Z,31.26
2023-04-26T12:40:09.185Z,31.32
2023-04-26T12:41:09.151Z,31.50
2023-04-26T12:42:09.172Z,31.63
2023-04-26T12:43:09.187Z,31.74
2023-04-26T12:44:09.133Z,31.69
2023-04-26T12:45:09.131Z,31.76
2023-04-26T12:46:09.688Z,31.99
2023-04-26T12:47:09.550Z,32.08
2023-04-26T12:48:09.183Z,32.15
2023-04-26T12:49:09.284Z,32.10
2023-04-26T12:50:09.106Z,32.36
2023-04-26T12:51:09.101Z,32.47
2023-04-26T12:52:10.874Z,32.63
2023-04-26T12:53:09.076Z,32.60